Terminal Aerodrome Forecast
Issued by NWS Caribou, ME

Home | Current Version | Previous Version | Text Only | Print | Product List | Glossary On
Versions: 1 2 3 4 5 6 7 8 9 10 11 12 13 14
338
FTUS41 KCAR 261120
TAFCAR
TAF
KCAR 261120Z 2612/2712 07007KT P6SM -RA OVC060
     FM261600 05008KT 5SM -RA OVC020
     FM262200 04007KT 5SM BR VCSH OVC020
     FM270300 02005KT P6SM BKN020
     FM270800 36005KT P6SM SCT010=

USA.gov is the U.S. government's official web portal to all federal, state and local government web resources and services.